sensor_id;sensor_type;location;lat;lon;timestamp;P1;durP1;ratioP1;P2;durP2;ratioP2
74102;SDS011;62853;46.166;3.640;2023-03-23T00:01:25;3.60;;;2.97;;
74102;SDS011;62853;46.166;3.640;2023-03-23T00:03:55;2.80;;;2.60;;
74102;SDS011;62853;46.166;3.640;2023-03-23T00:06:24;3.55;;;2.83;;
74102;SDS011;62853;46.166;3.640;2023-03-23T00:08:52;2.70;;;2.50;;
74102;SDS011;62853;46.166;3.640;2023-03-23T00:11:24;2.83;;;2.35;;
74102;SDS011;62853;46.166;3.640;2023-03-23T00:13:54;3.20;;;2.90;;
74102;SDS011;62853;46.166;3.640;2023-03-23T00:16:23;4.20;;;2.67;;
74102;SDS011;62853;46.166;3.640;2023-03-23T00:18:57;3.05;;;2.78;;
74102;SDS011;62853;46.166;3.640;2023-03-23T00:21:30;3.17;;;2.88;;
74102;SDS011;62853;46.166;3.640;2023-03-23T00:26:29;2.90;;;2.60;;
74102;SDS011;62853;46.166;3.640;2023-03-23T00:28:58;2.90;;;2.60;;
74102;SDS011;62853;46.166;3.640;2023-03-23T00:31:25;2.80;;;2.60;;
74102;SDS011;62853;46.166;3.640;2023-03-23T00:33:56;2.38;;;2.17;;
74102;SDS011;62853;46.166;3.640;2023-03-23T00:36:21;2.53;;;2.33;;
74102;SDS011;62853;46.166;3.640;2023-03-23T00:38:48;2.22;;;2.03;;
74102;SDS011;62853;46.166;3.640;2023-03-23T00:41:13;3.28;;;2.50;;
74102;SDS011;62853;46.166;3.640;2023-03-23T00:43:40;2.58;;;2.38;;
74102;SDS011;62853;46.166;3.640;2023-03-23T00:46:05;3.13;;;2.67;;
74102;SDS011;62853;46.166;3.640;2023-03-23T00:48:34;2.83;;;2.63;;
74102;SDS011;62853;46.166;3.640;2023-03-23T00:51:10;3.78;;;2.80;;
74102;SDS011;62853;46.166;3.640;2023-03-23T00:53:36;4.35;;;2.85;;
74102;SDS011;62853;46.166;3.640;2023-03-23T00:56:03;2.67;;;2.47;;
74102;SDS011;62853;46.166;3.640;2023-03-23T00:58:28;2.47;;;2.28;;
74102;SDS011;62853;46.166;3.640;2023-03-23T01:00:54;2.22;;;2.03;;
74102;SDS011;62853;46.166;3.640;2023-03-23T01:03:19;3.13;;;2.83;;
74102;SDS011;62853;46.166;3.640;2023-03-23T01:05:45;3.25;;;2.65;;
74102;SDS011;62853;46.166;3.640;2023-03-23T01:08:16;3.03;;;2.78;;
74102;SDS011;62853;46.166;3.640;2023-03-23T01:10:43;2.28;;;2.08;;
74102;SDS011;62853;46.166;3.640;2023-03-23T01:13:10;2.40;;;2.20;;
74102;SDS011;62853;46.166;3.640;2023-03-23T01:15:36;2.35;;;2.15;;
74102;SDS011;62853;46.166;3.640;2023-03-23T01:18:01;3.28;;;2.50;;
74102;SDS011;62853;46.166;3.640;2023-03-23T01:20:27;2.47;;;2.28;;
74102;SDS011;62853;46.166;3.640;2023-03-23T01:22:54;2.63;;;2.22;;
74102;SDS011;62853;46.166;3.640;2023-03-23T01:25:25;2.30;;;2.10;;
74102;SDS011;62853;46.166;3.640;2023-03-23T01:27:55;2.22;;;2.10;;
74102;SDS011;62853;46.166;3.640;2023-03-23T01:30:21;2.22;;;2.03;;
74102;SDS011;62853;46.166;3.640;2023-03-23T01:32:47;2.50;;;2.30;;
74102;SDS011;62853;46.166;3.640;2023-03-23T01:35:13;2.33;;;2.13;;
74102;SDS011;62853;46.166;3.640;2023-03-23T01:37:38;2.70;;;2.10;;
74102;SDS011;62853;46.166;3.640;2023-03-23T01:40:04;2.45;;;2.25;;
74102;SDS011;62853;46.166;3.640;2023-03-23T01:42:31;2.03;;;1.90;;
74102;SDS011;62853;46.166;3.640;2023-03-23T01:45:44;2.15;;;2.00;;
74102;SDS011;62853;46.166;3.640;2023-03-23T01:47:44;5.03;;;2.42;;
74102;SDS011;62853;46.166;3.640;2023-03-23T01:50:11;2.47;;;2.28;;
74102;SDS011;62853;46.166;3.640;2023-03-23T01:52:36;2.40;;;2.20;;
74102;SDS011;62853;46.166;3.640;2023-03-23T01:55:02;2.88;;;2.55;;
74102;SDS011;62853;46.166;3.640;2023-03-23T01:57:29;2.28;;;2.08;;
74102;SDS011;62853;46.166;3.640;2023-03-23T01:59:56;2.25;;;2.05;;
74102;SDS011;62853;46.166;3.640;2023-03-23T02:02:25;3.38;;;2.40;;
74102;SDS011;62853;46.166;3.640;2023-03-23T02:04:51;2.35;;;2.10;;
74102;SDS011;62853;46.166;3.640;2023-03-23T02:07:22;2.60;;;2.40;;
74102;SDS011;62853;46.166;3.640;2023-03-23T02:09:50;3.22;;;2.63;;
74102;SDS011;62853;46.166;3.640;2023-03-23T02:12:16;3.05;;;2.78;;
74102;SDS011;62853;46.166;3.640;2023-03-23T02:14:41;3.20;;;2.90;;
74102;SDS011;62853;46.166;3.640;2023-03-23T02:17:08;3.40;;;3.08;;
74102;SDS011;62853;46.166;3.640;2023-03-23T02:30:59;3.08;;;2.78;;
74102;SDS011;62853;46.166;3.640;2023-03-23T02:34:45;2.63;;;2.42;;
74102;SDS011;62853;46.166;3.640;2023-03-23T02:39:21;2.60;;;2.25;;
74102;SDS011;62853;46.166;3.640;2023-03-23T02:41:53;2.22;;;2.03;;
74102;SDS011;62853;46.166;3.640;2023-03-23T02:44:23;3.03;;;2.45;;
74102;SDS011;62853;46.166;3.640;2023-03-23T02:46:54;2.90;;;2.63;;
74102;SDS011;62853;46.166;3.640;2023-03-23T02:49:22;2.22;;;2.10;;
74102;SDS011;62853;46.166;3.640;2023-03-23T02:51:49;7.13;;;3.28;;
74102;SDS011;62853;46.166;3.640;2023-03-23T02:54:17;2.72;;;2.47;;
74102;SDS011;62853;46.166;3.640;2023-03-23T02:56:45;3.08;;;2.78;;
74102;SDS011;62853;46.166;3.640;2023-03-23T02:59:12;2.95;;;2.75;;
74102;SDS011;62853;46.166;3.640;2023-03-23T03:04:15;4.45;;;3.20;;
74102;SDS011;62853;46.166;3.640;2023-03-23T03:09:49;3.03;;;2.67;;
74102;SDS011;62853;46.166;3.640;2023-03-23T03:12:24;3.13;;;2.72;;
74102;SDS011;62853;46.166;3.640;2023-03-23T03:15:06;3.47;;;3.08;;
74102;SDS011;62853;46.166;3.640;2023-03-23T03:17:40;3.42;;;3.13;;
74102;SDS011;62853;46.166;3.640;2023-03-23T03:20:09;4.63;;;3.38;;
74102;SDS011;62853;46.166;3.640;2023-03-23T03:22:39;4.25;;;3.85;;
74102;SDS011;62853;46.166;3.640;2023-03-23T03:25:08;4.78;;;4.07;;
74102;SDS011;62853;46.166;3.640;2023-03-23T03:27:38;4.38;;;3.50;;
74102;SDS011;62853;46.166;3.640;2023-03-23T03:30:05;3.42;;;3.13;;
74102;SDS011;62853;46.166;3.640;2023-03-23T03:32:38;3.78;;;3.38;;
74102;SDS011;62853;46.166;3.640;2023-03-23T03:35:08;3.30;;;3.00;;
74102;SDS011;62853;46.166;3.640;2023-03-23T03:37:34;3.17;;;2.88;;
74102;SDS011;62853;46.166;3.640;2023-03-23T03:40:03;3.25;;;2.95;;
74102;SDS011;62853;46.166;3.640;2023-03-23T03:42:37;4.10;;;2.78;;
74102;SDS011;62853;46.166;3.640;2023-03-23T03:45:04;3.15;;;2.85;;
74102;SDS011;62853;46.166;3.640;2023-03-23T03:47:32;2.88;;;2.65;;
74102;SDS011;62853;46.166;3.640;2023-03-23T03:49:58;4.57;;;2.85;;
74102;SDS011;62853;46.166;3.640;2023-03-23T03:52:23;3.35;;;2.83;;
74102;SDS011;62853;46.166;3.640;2023-03-23T03:54:49;3.15;;;2.63;;
74102;SDS011;62853;46.166;3.640;2023-03-23T03:57:14;3.90;;;2.60;;
74102;SDS011;62853;46.166;3.640;2023-03-23T03:59:40;4.18;;;2.67;;
74102;SDS011;62853;46.166;3.640;2023-03-23T04:02:05;4.20;;;2.83;;
74102;SDS011;62853;46.166;3.640;2023-03-23T04:04:31;4.07;;;2.90;;
74102;SDS011;62853;46.166;3.640;2023-03-23T04:06:56;3.08;;;2.10;;
74102;SDS011;62853;46.166;3.640;2023-03-23T04:09:22;3.67;;;2.20;;
74102;SDS011;62853;46.166;3.640;2023-03-23T04:11:47;3.22;;;2.00;;
74102;SDS011;62853;46.166;3.640;2023-03-23T04:14:13;3.38;;;1.92;;
74102;SDS011;62853;46.166;3.640;2023-03-23T04:16:38;4.95;;;2.30;;
74102;SDS011;62853;46.166;3.640;2023-03-23T04:19:03;4.22;;;2.00;;
74102;SDS011;62853;46.166;3.640;2023-03-23T04:21:29;4.03;;;1.90;;
74102;SDS011;62853;46.166;3.640;2023-03-23T04:23:55;2.95;;;1.70;;
74102;SDS011;62853;46.166;3.640;2023-03-23T04:26:24;3.00;;;2.10;;
74102;SDS011;62853;46.166;3.640;2023-03-23T04:28:50;3.67;;;2.20;;
74102;SDS011;62853;46.166;3.640;2023-03-23T04:31:17;5.35;;;2.33;;
74102;SDS011;62853;46.166;3.640;2023-03-23T04:33:42;3.88;;;2.08;;
74102;SDS011;62853;46.166;3.640;2023-03-23T04:36:07;2.10;;;1.60;;
74102;SDS011;62853;46.166;3.640;2023-03-23T04:38:33;3.92;;;1.80;;
74102;SDS011;62853;46.166;3.640;2023-03-23T04:40:59;3.05;;;1.67;;
74102;SDS011;62853;46.166;3.640;2023-03-23T04:43:27;3.47;;;1.70;;
74102;SDS011;62853;46.166;3.640;2023-03-23T04:45:57;2.30;;;1.55;;
74102;SDS011;62853;46.166;3.640;2023-03-23T04:48:25;3.72;;;1.60;;
74102;SDS011;62853;46.166;3.640;2023-03-23T04:50:52;3.03;;;1.63;;
74102;SDS011;62853;46.166;3.640;2023-03-23T04:53:18;3.78;;;1.75;;
74102;SDS011;62853;46.166;3.640;2023-03-23T04:55:44;4.00;;;1.50;;
74102;SDS011;62853;46.166;3.640;2023-03-23T04:58:10;3.38;;;1.50;;
74102;SDS011;62853;46.166;3.640;2023-03-23T05:00:37;1.83;;;1.23;;
74102;SDS011;62853;46.166;3.640;2023-03-23T05:03:03;2.25;;;1.10;;
74102;SDS011;62853;46.166;3.640;2023-03-23T05:05:29;2.50;;;1.30;;
74102;SDS011;62853;46.166;3.640;2023-03-23T05:07:55;2.45;;;1.42;;
74102;SDS011;62853;46.166;3.640;2023-03-23T05:10:21;3.83;;;1.73;;
74102;SDS011;62853;46.166;3.640;2023-03-23T05:12:47;2.95;;;1.48;;
74102;SDS011;62853;46.166;3.640;2023-03-23T05:15:13;3.03;;;1.60;;
74102;SDS011;62853;46.166;3.640;2023-03-23T05:17:40;2.80;;;1.50;;
74102;SDS011;62853;46.166;3.640;2023-03-23T05:20:10;2.67;;;1.50;;
74102;SDS011;62853;46.166;3.640;2023-03-23T05:22:37;2.25;;;1.80;;
74102;SDS011;62853;46.166;3.640;2023-03-23T05:25:03;6.80;;;1.80;;
74102;SDS011;62853;46.166;3.640;2023-03-23T05:27:30;2.28;;;1.60;;
74102;SDS011;62853;46.166;3.640;2023-03-23T05:29:57;3.75;;;2.10;;
74102;SDS011;62853;46.166;3.640;2023-03-23T05:32:24;2.67;;;1.88;;
74102;SDS011;62853;46.166;3.640;2023-03-23T05:34:54;2.70;;;2.00;;
74102;SDS011;62853;46.166;3.640;2023-03-23T05:37:21;3.50;;;2.10;;
74102;SDS011;62853;46.166;3.640;2023-03-23T05:39:47;2.22;;;1.60;;
74102;SDS011;62853;46.166;3.640;2023-03-23T05:42:12;2.17;;;1.73;;
74102;SDS011;62853;46.166;3.640;2023-03-23T05:44:40;2.10;;;1.67;;
74102;SDS011;62853;46.166;3.640;2023-03-23T05:47:06;1.83;;;1.58;;
74102;SDS011;62853;46.166;3.640;2023-03-23T05:49:31;3.40;;;1.75;;
74102;SDS011;62853;46.166;3.640;2023-03-23T05:51:57;3.20;;;2.08;;
74102;SDS011;62853;46.166;3.640;2023-03-23T05:54:23;3.58;;;2.03;;
74102;SDS011;62853;46.166;3.640;2023-03-23T05:56:49;2.30;;;1.63;;
74102;SDS011;62853;46.166;3.640;2023-03-23T05:59:14;2.45;;;1.50;;
74102;SDS011;62853;46.166;3.640;2023-03-23T06:01:40;3.45;;;1.73;;
74102;SDS011;62853;46.166;3.640;2023-03-23T06:04:05;2.85;;;1.45;;
74102;SDS011;62853;46.166;3.640;2023-03-23T06:06:30;2.22;;;1.75;;
74102;SDS011;62853;46.166;3.640;2023-03-23T06:08:57;2.78;;;2.00;;
74102;SDS011;62853;46.166;3.640;2023-03-23T06:11:23;4.85;;;2.25;;
74102;SDS011;62853;46.166;3.640;2023-03-23T06:13:50;2.00;;;1.50;;
74102;SDS011;62853;46.166;3.640;2023-03-23T06:16:16;2.35;;;1.70;;
74102;SDS011;62853;46.166;3.640;2023-03-23T06:18:42;3.85;;;1.90;;
74102;SDS011;62853;46.166;3.640;2023-03-23T06:21:08;5.47;;;2.08;;
74102;SDS011;62853;46.166;3.640;2023-03-23T06:23:34;3.45;;;1.83;;
74102;SDS011;62853;46.166;3.640;2023-03-23T06:26:01;2.95;;;1.70;;
74102;SDS011;62853;46.166;3.640;2023-03-23T06:28:30;2.50;;;1.27;;
74102;SDS011;62853;46.166;3.640;2023-03-23T06:30:58;1.65;;;1.35;;
74102;SDS011;62853;46.166;3.640;2023-03-23T06:33:25;2.80;;;1.58;;
74102;SDS011;62853;46.166;3.640;2023-03-23T06:35:50;3.80;;;1.90;;
74102;SDS011;62853;46.166;3.640;2023-03-23T06:38:16;3.28;;;1.60;;
74102;SDS011;62853;46.166;3.640;2023-03-23T06:40:42;1.88;;;1.52;;
74102;SDS011;62853;46.166;3.640;2023-03-23T06:43:11;2.47;;;1.55;;
74102;SDS011;62853;46.166;3.640;2023-03-23T06:45:36;1.75;;;1.40;;
74102;SDS011;62853;46.166;3.640;2023-03-23T06:48:01;2.10;;;1.30;;
74102;SDS011;62853;46.166;3.640;2023-03-23T06:50:27;3.72;;;1.38;;
74102;SDS011;62853;46.166;3.640;2023-03-23T06:52:53;2.08;;;1.45;;
74102;SDS011;62853;46.166;3.640;2023-03-23T06:55:18;2.67;;;1.60;;
74102;SDS011;62853;46.166;3.640;2023-03-23T06:57:44;2.55;;;1.60;;
74102;SDS011;62853;46.166;3.640;2023-03-23T07:00:10;4.18;;;2.10;;
74102;SDS011;62853;46.166;3.640;2023-03-23T07:02:39;3.55;;;1.60;;
74102;SDS011;62853;46.166;3.640;2023-03-23T07:05:05;1.42;;;1.20;;
74102;SDS011;62853;46.166;3.640;2023-03-23T07:07:32;4.50;;;2.05;;
74102;SDS011;62853;46.166;3.640;2023-03-23T07:09:58;1.80;;;1.20;;
74102;SDS011;62853;46.166;3.640;2023-03-23T07:12:23;1.73;;;1.25;;
74102;SDS011;62853;46.166;3.640;2023-03-23T07:14:49;2.50;;;1.48;;
74102;SDS011;62853;46.166;3.640;2023-03-23T07:17:15;5.60;;;2.05;;
74102;SDS011;62853;46.166;3.640;2023-03-23T07:19:42;3.85;;;1.90;;
74102;SDS011;62853;46.166;3.640;2023-03-23T07:22:08;2.72;;;1.90;;
74102;SDS011;62853;46.166;3.640;2023-03-23T07:24:34;4.13;;;2.20;;
74102;SDS011;62853;46.166;3.640;2023-03-23T07:27:00;4.15;;;2.20;;
74102;SDS011;62853;46.166;3.640;2023-03-23T07:29:26;3.22;;;1.80;;
74102;SDS011;62853;46.166;3.640;2023-03-23T07:31:52;2.38;;;1.55;;
74102;SDS011;62853;46.166;3.640;2023-03-23T07:34:18;3.15;;;1.65;;
74102;SDS011;62853;46.166;3.640;2023-03-23T07:36:44;2.25;;;1.58;;
74102;SDS011;62853;46.166;3.640;2023-03-23T07:39:10;4.03;;;1.58;;
74102;SDS011;62853;46.166;3.640;2023-03-23T07:41:37;7.20;;;2.80;;
74102;SDS011;62853;46.166;3.640;2023-03-23T07:44:02;29.17;;;4.85;;
74102;SDS011;62853;46.166;3.640;2023-03-23T07:46:28;5.20;;;2.28;;
74102;SDS011;62853;46.166;3.640;2023-03-23T07:48:53;3.30;;;1.40;;
74102;SDS011;62853;46.166;3.640;2023-03-23T07:51:19;1.95;;;1.15;;
74102;SDS011;62853;46.166;3.640;2023-03-23T07:53:44;3.08;;;1.20;;
74102;SDS011;62853;46.166;3.640;2023-03-23T07:56:12;1.13;;;0.75;;
74102;SDS011;62853;46.166;3.640;2023-03-23T07:58:39;3.45;;;1.20;;
74102;SDS011;62853;46.166;3.640;2023-03-23T08:01:09;2.13;;;1.38;;
74102;SDS011;62853;46.166;3.640;2023-03-23T08:03:34;2.17;;;1.23;;
74102;SDS011;62853;46.166;3.640;2023-03-23T08:06:00;1.73;;;1.10;;
74102;SDS011;62853;46.166;3.640;2023-03-23T08:08:26;2.15;;;0.90;;
74102;SDS011;62853;46.166;3.640;2023-03-23T08:10:51;1.63;;;0.98;;
74102;SDS011;62853;46.166;3.640;2023-03-23T08:13:17;1.50;;;0.90;;
74102;SDS011;62853;46.166;3.640;2023-03-23T08:15:43;1.33;;;0.93;;
74102;SDS011;62853;46.166;3.640;2023-03-23T08:18:09;1.50;;;1.02;;
74102;SDS011;62853;46.166;3.640;2023-03-23T08:20:35;2.22;;;1.00;;
74102;SDS011;62853;46.166;3.640;2023-03-23T08:23:01;1.20;;;1.00;;
74102;SDS011;62853;46.166;3.640;2023-03-23T08:25:28;2.65;;;1.40;;
74102;SDS011;62853;46.166;3.640;2023-03-23T08:27:56;3.42;;;1.20;;
74102;SDS011;62853;46.166;3.640;2023-03-23T08:30:22;2.67;;;1.30;;
74102;SDS011;62853;46.166;3.640;2023-03-23T08:32:50;1.55;;;1.15;;
74102;SDS011;62853;46.166;3.640;2023-03-23T08:35:17;1.75;;;1.17;;
74102;SDS011;62853;46.166;3.640;2023-03-23T08:37:43;1.92;;;1.10;;
74102;SDS011;62853;46.166;3.640;2023-03-23T08:40:11;1.30;;;0.80;;
74102;SDS011;62853;46.166;3.640;2023-03-23T08:42:40;2.50;;;1.20;;
74102;SDS011;62853;46.166;3.640;2023-03-23T08:45:08;2.28;;;1.17;;
74102;SDS011;62853;46.166;3.640;2023-03-23T08:47:36;1.90;;;0.90;;
74102;SDS011;62853;46.166;3.640;2023-03-23T08:50:03;1.63;;;0.90;;
74102;SDS011;62853;46.166;3.640;2023-03-23T08:52:30;0.90;;;0.70;;
74102;SDS011;62853;46.166;3.640;2023-03-23T08:54:55;1.55;;;0.70;;
74102;SDS011;62853;46.166;3.640;2023-03-23T08:57:22;0.70;;;0.60;;
74102;SDS011;62853;46.166;3.640;2023-03-23T08:59:48;0.88;;;0.60;;
74102;SDS011;62853;46.166;3.640;2023-03-23T09:02:13;0.70;;;0.50;;
74102;SDS011;62853;46.166;3.640;2023-03-23T09:04:39;2.30;;;0.80;;
74102;SDS011;62853;46.166;3.640;2023-03-23T09:07:08;1.48;;;0.52;;
74102;SDS011;62853;46.166;3.640;2023-03-23T09:09:34;1.90;;;0.60;;
74102;SDS011;62853;46.166;3.640;2023-03-23T09:12:00;0.70;;;0.60;;
74102;SDS011;62853;46.166;3.640;2023-03-23T09:14:26;1.60;;;0.65;;
74102;SDS011;62853;46.166;3.640;2023-03-23T09:16:51;1.30;;;0.70;;
74102;SDS011;62853;46.166;3.640;2023-03-23T09:19:17;1.48;;;0.73;;
74102;SDS011;62853;46.166;3.640;2023-03-23T09:21:45;1.30;;;0.68;;
74102;SDS011;62853;46.166;3.640;2023-03-23T09:24:11;1.63;;;0.90;;
74102;SDS011;62853;46.166;3.640;2023-03-23T09:26:37;2.20;;;0.90;;
74102;SDS011;62853;46.166;3.640;2023-03-23T09:29:02;1.10;;;0.57;;
74102;SDS011;62853;46.166;3.640;2023-03-23T09:31:28;0.88;;;0.50;;
74102;SDS011;62853;46.166;3.640;2023-03-23T09:33:56;1.15;;;0.70;;
74102;SDS011;62853;46.166;3.640;2023-03-23T09:36:23;0.65;;;0.55;;
74102;SDS011;62853;46.166;3.640;2023-03-23T09:38:51;1.60;;;0.90;;
74102;SDS011;62853;46.166;3.640;2023-03-23T09:44:17;1.77;;;1.00;;
74102;SDS011;62853;46.166;3.640;2023-03-23T09:54:26;1.75;;;1.00;;
74102;SDS011;62853;46.166;3.640;2023-03-23T09:56:55;1.45;;;0.77;;
74102;SDS011;62853;46.166;3.640;2023-03-23T10:02:23;1.27;;;0.70;;
74102;SDS011;62853;46.166;3.640;2023-03-23T10:04:55;1.27;;;0.85;;
74102;SDS011;62853;46.166;3.640;2023-03-23T10:07:26;1.85;;;1.00;;
74102;SDS011;62853;46.166;3.640;2023-03-23T10:09:57;1.10;;;0.80;;
74102;SDS011;62853;46.166;3.640;2023-03-23T10:15:27;1.35;;;0.90;;
74102;SDS011;62853;46.166;3.640;2023-03-23T10:18:17;1.85;;;0.90;;
74102;SDS011;62853;46.166;3.640;2023-03-23T10:21:00;2.00;;;1.25;;
74102;SDS011;62853;46.166;3.640;2023-03-23T10:28:58;2.25;;;1.30;;
74102;SDS011;62853;46.166;3.640;2023-03-23T10:31:34;2.65;;;1.35;;
74102;SDS011;62853;46.166;3.640;2023-03-23T10:34:04;2.00;;;1.30;;
74102;SDS011;62853;46.166;3.640;2023-03-23T10:36:39;6.00;;;2.10;;
74102;SDS011;62853;46.166;3.640;2023-03-23T10:39:18;2.85;;;1.60;;
74102;SDS011;62853;46.166;3.640;2023-03-23T10:41:46;2.75;;;1.33;;
74102;SDS011;62853;46.166;3.640;2023-03-23T10:44:20;3.78;;;1.70;;
74102;SDS011;62853;46.166;3.640;2023-03-23T10:46:53;5.80;;;2.10;;
74102;SDS011;62853;46.166;3.640;2023-03-23T10:49:25;5.72;;;2.33;;
74102;SDS011;62853;46.166;3.640;2023-03-23T10:57:28;3.30;;;1.60;;
74102;SDS011;62853;46.166;3.640;2023-03-23T10:59:58;3.17;;;1.58;;
74102;SDS011;62853;46.166;3.640;2023-03-23T11:02:31;1.77;;;1.15;;
74102;SDS011;62853;46.166;3.640;2023-03-23T11:05:03;1.85;;;1.13;;
74102;SDS011;62853;46.166;3.640;2023-03-23T11:07:38;1.90;;;1.00;;
74102;SDS011;62853;46.166;3.640;2023-03-23T11:10:26;2.92;;;1.35;;
74102;SDS011;62853;46.166;3.640;2023-03-23T11:13:01;2.30;;;0.80;;
74102;SDS011;62853;46.166;3.640;2023-03-23T11:18:05;3.35;;;1.27;;
74102;SDS011;62853;46.166;3.640;2023-03-23T11:20:43;4.70;;;1.42;;
74102;SDS011;62853;46.166;3.640;2023-03-23T11:28:47;2.83;;;1.40;;
74102;SDS011;62853;46.166;3.640;2023-03-23T11:31:21;1.73;;;1.20;;
74102;SDS011;62853;46.166;3.640;2023-03-23T11:33:53;2.10;;;1.13;;
74102;SDS011;62853;46.166;3.640;2023-03-23T11:36:19;3.63;;;1.38;;
74102;SDS011;62853;46.166;3.640;2023-03-23T11:38:51;1.88;;;1.10;;
74102;SDS011;62853;46.166;3.640;2023-03-23T11:41:21;2.63;;;1.30;;
74102;SDS011;62853;46.166;3.640;2023-03-23T11:43:47;1.77;;;0.93;;
74102;SDS011;62853;46.166;3.640;2023-03-23T11:54:57;3.38;;;1.70;;
74102;SDS011;62853;46.166;3.640;2023-03-23T11:57:29;2.80;;;1.50;;
74102;SDS011;62853;46.166;3.640;2023-03-23T11:59:55;1.25;;;0.95;;
74102;SDS011;62853;46.166;3.640;2023-03-23T12:08:13;2.28;;;1.35;;
74102;SDS011;62853;46.166;3.640;2023-03-23T12:16:20;2.15;;;1.10;;
74102;SDS011;62853;46.166;3.640;2023-03-23T12:37:38;2.17;;;1.25;;
74102;SDS011;62853;46.166;3.640;2023-03-23T12:43:21;4.15;;;1.60;;
74102;SDS011;62853;46.166;3.640;2023-03-23T12:46:14;2.85;;;1.55;;
74102;SDS011;62853;46.166;3.640;2023-03-23T12:49:03;3.05;;;1.38;;
74102;SDS011;62853;46.166;3.640;2023-03-23T13:03:26;2.40;;;1.45;;
74102;SDS011;62853;46.166;3.640;2023-03-23T13:05:54;3.33;;;1.70;;
74102;SDS011;62853;46.166;3.640;2023-03-23T13:08:38;2.70;;;1.50;;
74102;SDS011;62853;46.166;3.640;2023-03-23T13:11:14;4.80;;;2.25;;
74102;SDS011;62853;46.166;3.640;2023-03-23T13:19:11;5.55;;;1.88;;
74102;SDS011;62853;46.166;3.640;2023-03-23T13:21:50;3.05;;;1.90;;
74102;SDS011;62853;46.166;3.640;2023-03-23T13:24:28;4.13;;;1.90;;
74102;SDS011;62853;46.166;3.640;2023-03-23T13:26:56;3.08;;;1.60;;
74102;SDS011;62853;46.166;3.640;2023-03-23T13:29:26;4.30;;;1.90;;
74102;SDS011;62853;46.166;3.640;2023-03-23T13:32:03;4.75;;;2.00;;
74102;SDS011;62853;46.166;3.640;2023-03-23T13:34:31;5.05;;;1.30;;
74102;SDS011;62853;46.166;3.640;2023-03-23T13:37:01;3.92;;;1.40;;
74102;SDS011;62853;46.166;3.640;2023-03-23T13:39:31;2.35;;;1.42;;
74102;SDS011;62853;46.166;3.640;2023-03-23T13:45:36;4.20;;;2.63;;
74102;SDS011;62853;46.166;3.640;2023-03-23T13:47:46;4.88;;;2.65;;
74102;SDS011;62853;46.166;3.640;2023-03-23T13:50:43;5.22;;;3.05;;
74102;SDS011;62853;46.166;3.640;2023-03-23T13:53:20;4.72;;;2.90;;
74102;SDS011;62853;46.166;3.640;2023-03-23T13:58:48;7.05;;;2.63;;
74102;SDS011;62853;46.166;3.640;2023-03-23T14:01:34;14.52;;;3.92;;
74102;SDS011;62853;46.166;3.640;2023-03-23T14:04:05;16.92;;;4.90;;
74102;SDS011;62853;46.166;3.640;2023-03-23T14:06:35;5.30;;;2.55;;
74102;SDS011;62853;46.166;3.640;2023-03-23T14:09:44;6.28;;;2.67;;
74102;SDS011;62853;46.166;3.640;2023-03-23T14:12:01;4.60;;;2.28;;
74102;SDS011;62853;46.166;3.640;2023-03-23T14:14:44;5.75;;;2.30;;
74102;SDS011;62853;46.166;3.640;2023-03-23T14:17:28;3.83;;;2.15;;
74102;SDS011;62853;46.166;3.640;2023-03-23T14:19:55;5.30;;;2.60;;
74102;SDS011;62853;46.166;3.640;2023-03-23T14:22:33;3.70;;;2.30;;
74102;SDS011;62853;46.166;3.640;2023-03-23T14:25:02;3.75;;;1.90;;
74102;SDS011;62853;46.166;3.640;2023-03-23T14:27:35;5.20;;;2.40;;
74102;SDS011;62853;46.166;3.640;2023-03-23T14:30:12;4.28;;;2.58;;
74102;SDS011;62853;46.166;3.640;2023-03-23T14:32:40;4.00;;;2.40;;
74102;SDS011;62853;46.166;3.640;2023-03-23T14:35:12;3.60;;;1.90;;
74102;SDS011;62853;46.166;3.640;2023-03-23T14:40:04;6.40;;;3.05;;
74102;SDS011;62853;46.166;3.640;2023-03-23T14:42:33;4.85;;;2.75;;
74102;SDS011;62853;46.166;3.640;2023-03-23T14:45:00;7.45;;;2.90;;
74102;SDS011;62853;46.166;3.640;2023-03-23T14:47:36;6.90;;;3.47;;
74102;SDS011;62853;46.166;3.640;2023-03-23T14:50:06;4.13;;;2.78;;
74102;SDS011;62853;46.166;3.640;2023-03-23T14:52:47;7.90;;;3.13;;
74102;SDS011;62853;46.166;3.640;2023-03-23T14:55:14;6.22;;;2.90;;
74102;SDS011;62853;46.166;3.640;2023-03-23T14:57:43;4.15;;;2.33;;
74102;SDS011;62853;46.166;3.640;2023-03-23T15:00:18;3.50;;;2.00;;
74102;SDS011;62853;46.166;3.640;2023-03-23T15:02:52;3.90;;;2.08;;
74102;SDS011;62853;46.166;3.640;2023-03-23T15:05:22;2.92;;;1.80;;
74102;SDS011;62853;46.166;3.640;2023-03-23T15:07:54;2.42;;;1.48;;
74102;SDS011;62853;46.166;3.640;2023-03-23T15:10:24;2.03;;;1.42;;
74102;SDS011;62853;46.166;3.640;2023-03-23T15:12:50;4.28;;;2.05;;
74102;SDS011;62853;46.166;3.640;2023-03-23T15:17:51;3.28;;;1.88;;
74102;SDS011;62853;46.166;3.640;2023-03-23T15:20:22;2.70;;;1.70;;
74102;SDS011;62853;46.166;3.640;2023-03-23T15:22:52;2.15;;;1.20;;
74102;SDS011;62853;46.166;3.640;2023-03-23T15:25:20;1.90;;;1.33;;
74102;SDS011;62853;46.166;3.640;2023-03-23T15:27:54;3.03;;;1.98;;
74102;SDS011;62853;46.166;3.640;2023-03-23T15:33:22;2.10;;;1.60;;
74102;SDS011;62853;46.166;3.640;2023-03-23T15:35:48;5.57;;;2.10;;
74102;SDS011;62853;46.166;3.640;2023-03-23T15:40:48;5.68;;;2.50;;
74102;SDS011;62853;46.166;3.640;2023-03-23T15:45:50;2.88;;;1.85;;
74102;SDS011;62853;46.166;3.640;2023-03-23T15:48:47;3.85;;;2.22;;
74102;SDS011;62853;46.166;3.640;2023-03-23T15:51:12;4.28;;;2.15;;
74102;SDS011;62853;46.166;3.640;2023-03-23T15:53:39;3.45;;;2.15;;
74102;SDS011;62853;46.166;3.640;2023-03-23T15:56:06;3.67;;;1.80;;
74102;SDS011;62853;46.166;3.640;2023-03-23T15:58:34;2.38;;;1.70;;
74102;SDS011;62853;46.166;3.640;2023-03-23T16:01:03;2.45;;;1.50;;
74102;SDS011;62853;46.166;3.640;2023-03-23T16:03:37;1.67;;;1.35;;
74102;SDS011;62853;46.166;3.640;2023-03-23T16:06:08;2.38;;;1.42;;
74102;SDS011;62853;46.166;3.640;2023-03-23T16:08:36;1.90;;;1.23;;
74102;SDS011;62853;46.166;3.640;2023-03-23T16:11:04;2.50;;;1.35;;
74102;SDS011;62853;46.166;3.640;2023-03-23T16:13:40;2.78;;;1.33;;
74102;SDS011;62853;46.166;3.640;2023-03-23T16:16:08;2.03;;;1.38;;
74102;SDS011;62853;46.166;3.640;2023-03-23T16:18:39;2.97;;;1.33;;
74102;SDS011;62853;46.166;3.640;2023-03-23T16:21:04;1.52;;;1.35;;
74102;SDS011;62853;46.166;3.640;2023-03-23T16:23:31;1.92;;;1.10;;
74102;SDS011;62853;46.166;3.640;2023-03-23T16:25:56;3.53;;;2.17;;
74102;SDS011;62853;46.166;3.640;2023-03-23T16:28:22;4.40;;;2.30;;
74102;SDS011;62853;46.166;3.640;2023-03-23T16:30:47;5.38;;;2.25;;
74102;SDS011;62853;46.166;3.640;2023-03-23T16:33:13;6.07;;;2.92;;
74102;SDS011;62853;46.166;3.640;2023-03-23T16:35:38;5.25;;;2.97;;
74102;SDS011;62853;46.166;3.640;2023-03-23T16:38:04;4.10;;;2.60;;
74102;SDS011;62853;46.166;3.640;2023-03-23T16:40:30;3.28;;;2.28;;
74102;SDS011;62853;46.166;3.640;2023-03-23T16:42:57;3.30;;;2.30;;
74102;SDS011;62853;46.166;3.640;2023-03-23T16:45:23;3.28;;;2.00;;
74102;SDS011;62853;46.166;3.640;2023-03-23T16:47:49;4.38;;;2.20;;
74102;SDS011;62853;46.166;3.640;2023-03-23T16:50:15;4.50;;;2.30;;
74102;SDS011;62853;46.166;3.640;2023-03-23T16:52:43;2.63;;;2.00;;
74102;SDS011;62853;46.166;3.640;2023-03-23T16:55:11;3.83;;;2.00;;
74102;SDS011;62853;46.166;3.640;2023-03-23T16:57:38;2.55;;;2.00;;
74102;SDS011;62853;46.166;3.640;2023-03-23T17:00:05;4.00;;;2.33;;
74102;SDS011;62853;46.166;3.640;2023-03-23T17:02:33;2.70;;;2.00;;
74102;SDS011;62853;46.166;3.640;2023-03-23T17:04:58;2.38;;;1.70;;
74102;SDS011;62853;46.166;3.640;2023-03-23T17:07:25;4.13;;;1.80;;
74102;SDS011;62853;46.166;3.640;2023-03-23T17:09:50;2.75;;;1.80;;
74102;SDS011;62853;46.166;3.640;2023-03-23T17:12:15;4.00;;;1.70;;
74102;SDS011;62853;46.166;3.640;2023-03-23T17:14:44;3.05;;;1.70;;